sensor_id;sensor_type;location;lat;lon;timestamp;P1;durP1;ratioP1;P2;durP2;ratioP2
37645;SDS011;23489;49.600;6.138;2023-04-03T00:01:35;3.33;;;1.77;;
37645;SDS011;23489;49.600;6.138;2023-04-03T00:04:03;2.80;;;2.15;;
37645;SDS011;23489;49.600;6.138;2023-04-03T00:06:30;2.58;;;2.10;;
37645;SDS011;23489;49.600;6.138;2023-04-03T00:08:56;4.35;;;2.50;;
37645;SDS011;23489;49.600;6.138;2023-04-03T00:11:22;3.53;;;2.17;;
37645;SDS011;23489;49.600;6.138;2023-04-03T00:13:48;4.22;;;2.42;;
37645;SDS011;23489;49.600;6.138;2023-04-03T00:16:14;3.50;;;2.30;;
37645;SDS011;23489;49.600;6.138;2023-04-03T00:18:40;5.22;;;2.40;;
37645;SDS011;23489;49.600;6.138;2023-04-03T00:21:07;3.03;;;2.22;;
37645;SDS011;23489;49.600;6.138;2023-04-03T00:23:34;3.67;;;2.60;;
37645;SDS011;23489;49.600;6.138;2023-04-03T00:26:00;4.55;;;2.33;;
37645;SDS011;23489;49.600;6.138;2023-04-03T00:28:26;2.45;;;1.88;;
37645;SDS011;23489;49.600;6.138;2023-04-03T00:30:52;2.50;;;2.20;;
37645;SDS011;23489;49.600;6.138;2023-04-03T00:33:17;4.95;;;2.42;;
37645;SDS011;23489;49.600;6.138;2023-04-03T00:35:46;4.30;;;2.33;;
37645;SDS011;23489;49.600;6.138;2023-04-03T00:38:13;3.30;;;2.35;;
37645;SDS011;23489;49.600;6.138;2023-04-03T00:40:42;2.15;;;2.00;;
37645;SDS011;23489;49.600;6.138;2023-04-03T00:43:14;2.55;;;2.15;;
37645;SDS011;23489;49.600;6.138;2023-04-03T00:45:45;2.75;;;2.10;;
37645;SDS011;23489;49.600;6.138;2023-04-03T00:48:15;3.60;;;2.03;;
37645;SDS011;23489;49.600;6.138;2023-04-03T00:50:45;2.67;;;2.17;;
37645;SDS011;23489;49.600;6.138;2023-04-03T00:53:12;4.75;;;2.35;;
37645;SDS011;23489;49.600;6.138;2023-04-03T00:56:00;4.05;;;1.95;;
37645;SDS011;23489;49.600;6.138;2023-04-03T01:01:25;3.28;;;2.13;;
37645;SDS011;23489;49.600;6.138;2023-04-03T01:03:52;3.92;;;2.15;;
37645;SDS011;23489;49.600;6.138;2023-04-03T01:06:20;2.85;;;2.13;;
37645;SDS011;23489;49.600;6.138;2023-04-03T01:08:51;2.60;;;2.20;;
37645;SDS011;23489;49.600;6.138;2023-04-03T01:11:17;4.55;;;2.25;;
37645;SDS011;23489;49.600;6.138;2023-04-03T01:13:44;3.03;;;2.15;;
37645;SDS011;23489;49.600;6.138;2023-04-03T01:16:10;3.08;;;2.20;;
37645;SDS011;23489;49.600;6.138;2023-04-03T01:18:36;2.72;;;2.05;;
37645;SDS011;23489;49.600;6.138;2023-04-03T01:21:29;3.95;;;2.35;;
37645;SDS011;23489;49.600;6.138;2023-04-03T01:26:30;3.60;;;2.38;;
37645;SDS011;23489;49.600;6.138;2023-04-03T01:28:58;2.72;;;2.30;;
37645;SDS011;23489;49.600;6.138;2023-04-03T01:31:27;3.50;;;2.35;;
37645;SDS011;23489;49.600;6.138;2023-04-03T01:34:00;2.35;;;2.10;;
37645;SDS011;23489;49.600;6.138;2023-04-03T01:36:29;2.78;;;2.20;;
37645;SDS011;23489;49.600;6.138;2023-04-03T01:38:57;3.92;;;2.38;;
37645;SDS011;23489;49.600;6.138;2023-04-03T01:41:24;2.88;;;2.45;;
37645;SDS011;23489;49.600;6.138;2023-04-03T01:43:54;2.60;;;2.13;;
37645;SDS011;23489;49.600;6.138;2023-04-03T01:46:19;3.60;;;2.38;;
37645;SDS011;23489;49.600;6.138;2023-04-03T01:48:45;2.60;;;2.20;;
37645;SDS011;23489;49.600;6.138;2023-04-03T01:51:11;4.15;;;2.42;;
37645;SDS011;23489;49.600;6.138;2023-04-03T01:53:37;4.20;;;2.75;;
37645;SDS011;23489;49.600;6.138;2023-04-03T01:56:03;3.83;;;2.47;;
37645;SDS011;23489;49.600;6.138;2023-04-03T01:58:31;4.10;;;2.50;;
37645;SDS011;23489;49.600;6.138;2023-04-03T02:00:56;3.58;;;2.72;;
37645;SDS011;23489;49.600;6.138;2023-04-03T02:03:22;3.40;;;2.30;;
37645;SDS011;23489;49.600;6.138;2023-04-03T02:05:48;3.50;;;2.40;;
37645;SDS011;23489;49.600;6.138;2023-04-03T02:08:15;3.53;;;2.35;;
37645;SDS011;23489;49.600;6.138;2023-04-03T02:10:43;3.08;;;2.50;;
37645;SDS011;23489;49.600;6.138;2023-04-03T02:13:12;3.40;;;2.60;;
37645;SDS011;23489;49.600;6.138;2023-04-03T02:15:38;2.70;;;2.38;;
37645;SDS011;23489;49.600;6.138;2023-04-03T02:18:04;3.55;;;2.97;;
37645;SDS011;23489;49.600;6.138;2023-04-03T02:20:30;5.75;;;2.63;;
37645;SDS011;23489;49.600;6.138;2023-04-03T02:22:56;3.17;;;2.53;;
37645;SDS011;23489;49.600;6.138;2023-04-03T02:25:24;3.88;;;2.67;;
37645;SDS011;23489;49.600;6.138;2023-04-03T02:27:50;3.03;;;2.65;;
37645;SDS011;23489;49.600;6.138;2023-04-03T02:30:15;3.08;;;2.50;;
37645;SDS011;23489;49.600;6.138;2023-04-03T02:32:42;3.50;;;2.97;;
37645;SDS011;23489;49.600;6.138;2023-04-03T02:35:09;2.90;;;2.60;;
37645;SDS011;23489;49.600;6.138;2023-04-03T02:37:36;5.13;;;2.92;;
37645;SDS011;23489;49.600;6.138;2023-04-03T02:40:02;3.42;;;2.65;;
37645;SDS011;23489;49.600;6.138;2023-04-03T02:42:29;3.90;;;2.58;;
37645;SDS011;23489;49.600;6.138;2023-04-03T02:44:55;2.97;;;2.38;;
37645;SDS011;23489;49.600;6.138;2023-04-03T02:47:20;4.75;;;2.47;;
37645;SDS011;23489;49.600;6.138;2023-04-03T02:49:47;4.88;;;2.80;;
37645;SDS011;23489;49.600;6.138;2023-04-03T02:52:13;2.60;;;2.20;;
37645;SDS011;23489;49.600;6.138;2023-04-03T02:54:39;4.35;;;2.40;;
37645;SDS011;23489;49.600;6.138;2023-04-03T02:57:08;2.45;;;2.22;;
37645;SDS011;23489;49.600;6.138;2023-04-03T02:59:36;4.10;;;2.50;;
37645;SDS011;23489;49.600;6.138;2023-04-03T03:02:06;3.10;;;2.60;;
37645;SDS011;23489;49.600;6.138;2023-04-03T03:04:35;2.97;;;2.60;;
37645;SDS011;23489;49.600;6.138;2023-04-03T03:07:01;2.97;;;2.53;;
37645;SDS011;23489;49.600;6.138;2023-04-03T03:09:27;3.40;;;2.70;;
37645;SDS011;23489;49.600;6.138;2023-04-03T03:11:54;2.83;;;2.47;;
37645;SDS011;23489;49.600;6.138;2023-04-03T03:14:20;4.90;;;2.47;;
37645;SDS011;23489;49.600;6.138;2023-04-03T03:16:46;2.45;;;2.22;;
37645;SDS011;23489;49.600;6.138;2023-04-03T03:19:11;3.88;;;2.20;;
37645;SDS011;23489;49.600;6.138;2023-04-03T03:21:37;2.75;;;2.28;;
37645;SDS011;23489;49.600;6.138;2023-04-03T03:24:03;6.18;;;2.80;;
37645;SDS011;23489;49.600;6.138;2023-04-03T03:26:28;4.68;;;2.70;;
37645;SDS011;23489;49.600;6.138;2023-04-03T03:28:54;3.83;;;2.25;;
37645;SDS011;23489;49.600;6.138;2023-04-03T03:31:20;2.78;;;2.13;;
37645;SDS011;23489;49.600;6.138;2023-04-03T03:33:46;3.08;;;2.30;;
37645;SDS011;23489;49.600;6.138;2023-04-03T03:36:12;3.17;;;1.80;;
37645;SDS011;23489;49.600;6.138;2023-04-03T03:38:37;4.00;;;2.17;;
37645;SDS011;23489;49.600;6.138;2023-04-03T03:41:04;3.67;;;2.35;;
37645;SDS011;23489;49.600;6.138;2023-04-03T03:43:32;3.28;;;2.30;;
37645;SDS011;23489;49.600;6.138;2023-04-03T03:45:57;2.08;;;1.88;;
37645;SDS011;23489;49.600;6.138;2023-04-03T03:48:24;4.57;;;2.03;;
37645;SDS011;23489;49.600;6.138;2023-04-03T03:50:50;4.22;;;2.70;;
37645;SDS011;23489;49.600;6.138;2023-04-03T03:53:17;2.10;;;1.88;;
37645;SDS011;23489;49.600;6.138;2023-04-03T03:55:44;4.82;;;2.20;;
37645;SDS011;23489;49.600;6.138;2023-04-03T03:58:10;3.45;;;2.00;;
37645;SDS011;23489;49.600;6.138;2023-04-03T04:00:36;2.65;;;2.10;;
37645;SDS011;23489;49.600;6.138;2023-04-03T04:03:02;2.92;;;2.00;;
37645;SDS011;23489;49.600;6.138;2023-04-03T04:05:30;3.92;;;2.30;;
37645;SDS011;23489;49.600;6.138;2023-04-03T04:07:57;4.35;;;2.40;;
37645;SDS011;23489;49.600;6.138;2023-04-03T04:10:24;2.90;;;2.20;;
37645;SDS011;23489;49.600;6.138;2023-04-03T04:12:50;2.88;;;2.25;;
37645;SDS011;23489;49.600;6.138;2023-04-03T04:15:19;2.50;;;1.90;;
37645;SDS011;23489;49.600;6.138;2023-04-03T04:17:47;3.95;;;2.20;;
37645;SDS011;23489;49.600;6.138;2023-04-03T04:20:12;3.17;;;2.35;;
37645;SDS011;23489;49.600;6.138;2023-04-03T04:22:39;4.95;;;2.40;;
37645;SDS011;23489;49.600;6.138;2023-04-03T04:25:05;2.78;;;2.28;;
37645;SDS011;23489;49.600;6.138;2023-04-03T04:27:31;3.53;;;2.20;;
37645;SDS011;23489;49.600;6.138;2023-04-03T04:29:57;5.05;;;2.63;;
37645;SDS011;23489;49.600;6.138;2023-04-03T04:32:23;5.63;;;2.70;;
37645;SDS011;23489;49.600;6.138;2023-04-03T04:34:49;4.38;;;2.20;;
37645;SDS011;23489;49.600;6.138;2023-04-03T04:37:15;3.33;;;2.10;;
37645;SDS011;23489;49.600;6.138;2023-04-03T04:39:40;3.83;;;2.30;;
37645;SDS011;23489;49.600;6.138;2023-04-03T04:42:06;3.40;;;2.15;;
37645;SDS011;23489;49.600;6.138;2023-04-03T04:44:33;2.90;;;2.40;;
37645;SDS011;23489;49.600;6.138;2023-04-03T04:46:59;3.63;;;2.25;;
37645;SDS011;23489;49.600;6.138;2023-04-03T04:49:26;6.18;;;2.30;;
37645;SDS011;23489;49.600;6.138;2023-04-03T04:51:52;2.97;;;2.20;;
37645;SDS011;23489;49.600;6.138;2023-04-03T04:54:22;2.50;;;2.00;;
37645;SDS011;23489;49.600;6.138;2023-04-03T04:56:49;2.10;;;1.90;;
37645;SDS011;23489;49.600;6.138;2023-04-03T04:59:14;2.45;;;2.00;;
37645;SDS011;23489;49.600;6.138;2023-04-03T05:01:41;5.07;;;2.13;;
37645;SDS011;23489;49.600;6.138;2023-04-03T05:04:11;6.03;;;2.30;;
37645;SDS011;23489;49.600;6.138;2023-04-03T05:06:38;3.50;;;2.50;;
37645;SDS011;23489;49.600;6.138;2023-04-03T05:09:08;3.97;;;2.25;;
37645;SDS011;23489;49.600;6.138;2023-04-03T05:11:35;4.07;;;2.30;;
37645;SDS011;23489;49.600;6.138;2023-04-03T05:14:01;2.65;;;2.03;;
37645;SDS011;23489;49.600;6.138;2023-04-03T05:16:28;4.20;;;2.17;;
37645;SDS011;23489;49.600;6.138;2023-04-03T05:18:54;3.47;;;1.85;;
37645;SDS011;23489;49.600;6.138;2023-04-03T05:21:21;2.50;;;1.67;;
37645;SDS011;23489;49.600;6.138;2023-04-03T05:23:51;1.75;;;1.65;;
37645;SDS011;23489;49.600;6.138;2023-04-03T05:26:17;3.75;;;1.90;;
37645;SDS011;23489;49.600;6.138;2023-04-03T05:28:45;2.00;;;1.70;;
37645;SDS011;23489;49.600;6.138;2023-04-03T05:31:12;2.47;;;1.80;;
37645;SDS011;23489;49.600;6.138;2023-04-03T05:33:38;8.80;;;2.00;;
37645;SDS011;23489;49.600;6.138;2023-04-03T05:36:07;2.10;;;1.90;;
37645;SDS011;23489;49.600;6.138;2023-04-03T05:38:36;2.03;;;1.83;;
37645;SDS011;23489;49.600;6.138;2023-04-03T05:41:02;2.20;;;1.60;;
37645;SDS011;23489;49.600;6.138;2023-04-03T05:43:28;5.25;;;1.85;;
37645;SDS011;23489;49.600;6.138;2023-04-03T05:45:54;4.65;;;2.10;;
37645;SDS011;23489;49.600;6.138;2023-04-03T05:48:22;2.88;;;1.70;;
37645;SDS011;23489;49.600;6.138;2023-04-03T05:50:48;2.22;;;1.65;;
37645;SDS011;23489;49.600;6.138;2023-04-03T05:53:21;2.13;;;1.33;;
37645;SDS011;23489;49.600;6.138;2023-04-03T05:55:50;3.83;;;1.92;;
37645;SDS011;23489;49.600;6.138;2023-04-03T05:58:17;2.30;;;1.80;;
37645;SDS011;23489;49.600;6.138;2023-04-03T06:00:45;5.15;;;2.03;;
37645;SDS011;23489;49.600;6.138;2023-04-03T06:03:11;4.50;;;1.80;;
37645;SDS011;23489;49.600;6.138;2023-04-03T06:05:36;3.30;;;1.60;;
37645;SDS011;23489;49.600;6.138;2023-04-03T06:08:02;4.78;;;1.90;;
37645;SDS011;23489;49.600;6.138;2023-04-03T06:10:29;4.18;;;1.95;;
37645;SDS011;23489;49.600;6.138;2023-04-03T06:12:55;4.38;;;1.70;;
37645;SDS011;23489;49.600;6.138;2023-04-03T06:15:22;2.47;;;1.80;;
37645;SDS011;23489;49.600;6.138;2023-04-03T06:17:48;2.10;;;1.75;;
37645;SDS011;23489;49.600;6.138;2023-04-03T06:20:14;1.90;;;1.65;;
37645;SDS011;23489;49.600;6.138;2023-04-03T06:22:39;1.80;;;1.60;;
37645;SDS011;23489;49.600;6.138;2023-04-03T06:25:07;3.78;;;1.88;;
37645;SDS011;23489;49.600;6.138;2023-04-03T06:27:34;2.42;;;1.50;;
37645;SDS011;23489;49.600;6.138;2023-04-03T06:29:59;3.38;;;1.80;;
37645;SDS011;23489;49.600;6.138;2023-04-03T06:32:25;3.47;;;1.70;;
37645;SDS011;23489;49.600;6.138;2023-04-03T06:34:51;4.22;;;1.90;;
37645;SDS011;23489;49.600;6.138;2023-04-03T06:37:19;7.18;;;1.88;;
37645;SDS011;23489;49.600;6.138;2023-04-03T06:39:46;2.80;;;1.90;;
37645;SDS011;23489;49.600;6.138;2023-04-03T06:42:12;4.20;;;1.77;;
37645;SDS011;23489;49.600;6.138;2023-04-03T06:44:47;3.30;;;1.70;;
37645;SDS011;23489;49.600;6.138;2023-04-03T06:47:13;3.38;;;1.60;;
37645;SDS011;23489;49.600;6.138;2023-04-03T06:49:40;3.05;;;1.60;;
37645;SDS011;23489;49.600;6.138;2023-04-03T06:52:06;3.40;;;1.88;;
37645;SDS011;23489;49.600;6.138;2023-04-03T06:54:33;4.25;;;2.17;;
37645;SDS011;23489;49.600;6.138;2023-04-03T06:56:58;2.80;;;1.48;;
37645;SDS011;23489;49.600;6.138;2023-04-03T06:59:24;4.03;;;2.08;;
37645;SDS011;23489;49.600;6.138;2023-04-03T07:01:50;3.42;;;1.80;;
37645;SDS011;23489;49.600;6.138;2023-04-03T07:04:16;3.38;;;1.63;;
37645;SDS011;23489;49.600;6.138;2023-04-03T07:06:44;2.38;;;1.70;;
37645;SDS011;23489;49.600;6.138;2023-04-03T07:09:10;2.42;;;1.55;;
37645;SDS011;23489;49.600;6.138;2023-04-03T07:11:36;1.55;;;1.30;;
37645;SDS011;23489;49.600;6.138;2023-04-03T07:16:28;1.80;;;1.50;;
37645;SDS011;23489;49.600;6.138;2023-04-03T07:18:55;3.50;;;1.80;;
37645;SDS011;23489;49.600;6.138;2023-04-03T07:21:22;2.05;;;1.75;;
37645;SDS011;23489;49.600;6.138;2023-04-03T07:23:48;2.83;;;1.80;;
37645;SDS011;23489;49.600;6.138;2023-04-03T07:26:13;2.00;;;1.33;;
37645;SDS011;23489;49.600;6.138;2023-04-03T07:28:39;3.85;;;1.40;;
37645;SDS011;23489;49.600;6.138;2023-04-03T07:31:07;1.80;;;1.40;;
37645;SDS011;23489;49.600;6.138;2023-04-03T07:33:37;2.95;;;1.70;;
37645;SDS011;23489;49.600;6.138;2023-04-03T07:36:03;3.22;;;1.73;;
37645;SDS011;23489;49.600;6.138;2023-04-03T07:38:31;2.70;;;1.55;;
37645;SDS011;23489;49.600;6.138;2023-04-03T07:40:58;2.50;;;1.50;;
37645;SDS011;23489;49.600;6.138;2023-04-03T07:43:23;1.40;;;1.30;;
37645;SDS011;23489;49.600;6.138;2023-04-03T07:48:19;2.88;;;1.60;;
37645;SDS011;23489;49.600;6.138;2023-04-03T07:50:49;2.88;;;1.58;;
37645;SDS011;23489;49.600;6.138;2023-04-03T07:53:14;3.97;;;1.77;;
37645;SDS011;23489;49.600;6.138;2023-04-03T07:55:40;4.00;;;1.65;;
37645;SDS011;23489;49.600;6.138;2023-04-03T07:58:13;4.30;;;1.63;;
37645;SDS011;23489;49.600;6.138;2023-04-03T08:00:40;2.13;;;1.67;;
37645;SDS011;23489;49.600;6.138;2023-04-03T08:03:06;2.28;;;1.58;;
37645;SDS011;23489;49.600;6.138;2023-04-03T08:05:39;3.38;;;1.55;;
37645;SDS011;23489;49.600;6.138;2023-04-03T08:08:06;3.00;;;1.50;;
37645;SDS011;23489;49.600;6.138;2023-04-03T08:10:32;2.25;;;1.60;;
37645;SDS011;23489;49.600;6.138;2023-04-03T08:12:58;4.03;;;1.70;;
37645;SDS011;23489;49.600;6.138;2023-04-03T08:15:24;3.75;;;1.60;;
37645;SDS011;23489;49.600;6.138;2023-04-03T08:20:17;5.78;;;2.08;;
37645;SDS011;23489;49.600;6.138;2023-04-03T08:25:08;2.97;;;1.80;;
37645;SDS011;23489;49.600;6.138;2023-04-03T08:27:34;4.18;;;1.38;;
37645;SDS011;23489;49.600;6.138;2023-04-03T08:30:00;2.13;;;1.45;;
37645;SDS011;23489;49.600;6.138;2023-04-03T08:32:26;3.53;;;1.67;;
37645;SDS011;23489;49.600;6.138;2023-04-03T08:34:52;2.33;;;1.60;;
37645;SDS011;23489;49.600;6.138;2023-04-03T08:37:18;2.40;;;1.48;;
37645;SDS011;23489;49.600;6.138;2023-04-03T08:44:59;2.63;;;1.57;;
37645;SDS011;23489;49.600;6.138;2023-04-03T08:47:40;2.88;;;1.50;;
37645;SDS011;23489;49.600;6.138;2023-04-03T08:50:12;1.50;;;1.40;;
37645;SDS011;23489;49.600;6.138;2023-04-03T08:52:45;4.07;;;1.63;;
37645;SDS011;23489;49.600;6.138;2023-04-03T08:55:21;2.70;;;1.60;;
37645;SDS011;23489;49.600;6.138;2023-04-03T08:57:48;3.60;;;1.70;;
37645;SDS011;23489;49.600;6.138;2023-04-03T09:00:20;4.15;;;2.35;;
37645;SDS011;23489;49.600;6.138;2023-04-03T09:02:52;4.13;;;1.65;;
37645;SDS011;23489;49.600;6.138;2023-04-03T09:05:20;3.42;;;1.50;;
37645;SDS011;23489;49.600;6.138;2023-04-03T09:14:26;3.90;;;1.63;;
37645;SDS011;23489;49.600;6.138;2023-04-03T09:22:33;3.70;;;1.50;;
37645;SDS011;23489;49.600;6.138;2023-04-03T09:25:13;2.47;;;1.35;;
37645;SDS011;23489;49.600;6.138;2023-04-03T09:27:43;2.42;;;1.52;;
37645;SDS011;23489;49.600;6.138;2023-04-03T09:30:16;2.78;;;1.60;;
37645;SDS011;23489;49.600;6.138;2023-04-03T09:32:44;2.88;;;1.58;;
37645;SDS011;23489;49.600;6.138;2023-04-03T09:38:00;3.60;;;1.63;;
37645;SDS011;23489;49.600;6.138;2023-04-03T09:45:54;3.13;;;1.52;;
37645;SDS011;23489;49.600;6.138;2023-04-03T09:48:25;3.47;;;1.60;;
37645;SDS011;23489;49.600;6.138;2023-04-03T09:50:54;4.03;;;1.50;;
37645;SDS011;23489;49.600;6.138;2023-04-03T09:56:19;4.32;;;2.05;;
37645;SDS011;23489;49.600;6.138;2023-04-03T09:58:52;2.92;;;1.60;;
37645;SDS011;23489;49.600;6.138;2023-04-03T10:01:34;2.08;;;1.58;;
37645;SDS011;23489;49.600;6.138;2023-04-03T10:06:42;6.65;;;1.92;;
37645;SDS011;23489;49.600;6.138;2023-04-03T10:09:27;1.77;;;1.40;;
37645;SDS011;23489;49.600;6.138;2023-04-03T10:12:07;3.05;;;1.88;;
37645;SDS011;23489;49.600;6.138;2023-04-03T10:20:27;2.00;;;1.45;;
37645;SDS011;23489;49.600;6.138;2023-04-03T10:26:00;2.33;;;1.90;;
37645;SDS011;23489;49.600;6.138;2023-04-03T10:47:38;1.55;;;1.30;;
37645;SDS011;23489;49.600;6.138;2023-04-03T11:00:23;2.83;;;2.10;;
37645;SDS011;23489;49.600;6.138;2023-04-03T11:02:58;3.25;;;1.98;;
37645;SDS011;23489;49.600;6.138;2023-04-03T11:05:35;2.17;;;1.67;;
37645;SDS011;23489;49.600;6.138;2023-04-03T11:08:10;2.78;;;2.00;;
37645;SDS011;23489;49.600;6.138;2023-04-03T11:10:45;2.83;;;1.90;;
37645;SDS011;23489;49.600;6.138;2023-04-03T11:13:32;3.28;;;2.00;;
37645;SDS011;23489;49.600;6.138;2023-04-03T11:16:01;2.42;;;2.08;;
37645;SDS011;23489;49.600;6.138;2023-04-03T11:18:32;4.18;;;2.08;;
37645;SDS011;23489;49.600;6.138;2023-04-03T11:21:19;5.65;;;2.08;;
37645;SDS011;23489;49.600;6.138;2023-04-03T11:23:49;3.53;;;1.98;;
37645;SDS011;23489;49.600;6.138;2023-04-03T11:26:21;4.50;;;2.17;;
37645;SDS011;23489;49.600;6.138;2023-04-03T11:28:56;6.40;;;2.00;;
37645;SDS011;23489;49.600;6.138;2023-04-03T11:37:31;2.88;;;2.08;;
37645;SDS011;23489;49.600;6.138;2023-04-03T11:40:00;2.67;;;1.70;;
37645;SDS011;23489;49.600;6.138;2023-04-03T11:42:39;2.42;;;1.95;;
37645;SDS011;23489;49.600;6.138;2023-04-03T11:47:56;4.28;;;1.90;;
37645;SDS011;23489;49.600;6.138;2023-04-03T11:50:40;2.58;;;2.05;;
37645;SDS011;23489;49.600;6.138;2023-04-03T12:05:48;5.18;;;2.03;;
37645;SDS011;23489;49.600;6.138;2023-04-03T12:13:37;2.90;;;2.40;;
37645;SDS011;23489;49.600;6.138;2023-04-03T12:16:04;2.13;;;1.92;;
37645;SDS011;23489;49.600;6.138;2023-04-03T12:18:40;2.83;;;2.10;;
37645;SDS011;23489;49.600;6.138;2023-04-03T12:21:22;4.45;;;1.88;;
37645;SDS011;23489;49.600;6.138;2023-04-03T12:23:56;4.95;;;1.90;;
37645;SDS011;23489;49.600;6.138;2023-04-03T12:26:33;3.42;;;1.90;;
37645;SDS011;23489;49.600;6.138;2023-04-03T12:29:12;2.80;;;2.05;;
37645;SDS011;23489;49.600;6.138;2023-04-03T12:31:49;3.08;;;2.20;;
37645;SDS011;23489;49.600;6.138;2023-04-03T12:34:34;3.97;;;2.05;;
37645;SDS011;23489;49.600;6.138;2023-04-03T12:40:12;1.88;;;1.58;;
37645;SDS011;23489;49.600;6.138;2023-04-03T12:45:51;1.92;;;1.70;;
37645;SDS011;23489;49.600;6.138;2023-04-03T12:48:47;4.28;;;2.10;;
37645;SDS011;23489;49.600;6.138;2023-04-03T12:54:03;2.95;;;2.08;;
37645;SDS011;23489;49.600;6.138;2023-04-03T12:56:38;3.42;;;1.92;;
37645;SDS011;23489;49.600;6.138;2023-04-03T12:59:23;3.08;;;1.88;;
37645;SDS011;23489;49.600;6.138;2023-04-03T13:01:56;3.03;;;1.80;;
37645;SDS011;23489;49.600;6.138;2023-04-03T13:04:23;3.40;;;2.03;;
37645;SDS011;23489;49.600;6.138;2023-04-03T13:06:50;4.10;;;1.80;;
37645;SDS011;23489;49.600;6.138;2023-04-03T13:09:26;8.00;;;1.98;;
37645;SDS011;23489;49.600;6.138;2023-04-03T13:12:10;4.65;;;1.90;;
37645;SDS011;23489;49.600;6.138;2023-04-03T13:14:38;4.50;;;2.03;;
37645;SDS011;23489;49.600;6.138;2023-04-03T13:19:38;1.75;;;1.30;;
37645;SDS011;23489;49.600;6.138;2023-04-03T13:22:06;3.45;;;1.90;;
37645;SDS011;23489;49.600;6.138;2023-04-03T13:24:44;3.35;;;1.80;;
37645;SDS011;23489;49.600;6.138;2023-04-03T13:27:13;2.80;;;1.70;;
37645;SDS011;23489;49.600;6.138;2023-04-03T13:29:39;3.92;;;1.88;;
37645;SDS011;23489;49.600;6.138;2023-04-03T13:32:05;6.30;;;1.80;;
37645;SDS011;23489;49.600;6.138;2023-04-03T13:34:36;2.67;;;1.70;;
37645;SDS011;23489;49.600;6.138;2023-04-03T13:37:03;3.30;;;1.67;;
37645;SDS011;23489;49.600;6.138;2023-04-03T13:39:34;3.20;;;1.73;;
37645;SDS011;23489;49.600;6.138;2023-04-03T13:42:15;5.05;;;1.88;;
37645;SDS011;23489;49.600;6.138;2023-04-03T13:44:47;2.50;;;1.48;;
37645;SDS011;23489;49.600;6.138;2023-04-03T13:47:21;5.68;;;1.77;;
37645;SDS011;23489;49.600;6.138;2023-04-03T13:50:03;2.10;;;1.45;;
37645;SDS011;23489;49.600;6.138;2023-04-03T13:57:53;2.67;;;1.63;;
37645;SDS011;23489;49.600;6.138;2023-04-03T14:03:25;3.28;;;1.60;;
37645;SDS011;23489;49.600;6.138;2023-04-03T14:05:56;2.30;;;1.70;;
37645;SDS011;23489;49.600;6.138;2023-04-03T14:08:23;2.08;;;1.70;;
37645;SDS011;23489;49.600;6.138;2023-04-03T14:10:49;2.60;;;1.50;;
37645;SDS011;23489;49.600;6.138;2023-04-03T14:13:16;2.70;;;1.38;;
37645;SDS011;23489;49.600;6.138;2023-04-03T14:15:44;2.03;;;1.50;;
37645;SDS011;23489;49.600;6.138;2023-04-03T14:18:13;3.60;;;1.55;;
37645;SDS011;23489;49.600;6.138;2023-04-03T14:20:41;4.57;;;1.70;;
37645;SDS011;23489;49.600;6.138;2023-04-03T14:23:08;3.33;;;1.40;;
37645;SDS011;23489;49.600;6.138;2023-04-03T14:25:35;5.15;;;1.90;;
37645;SDS011;23489;49.600;6.138;2023-04-03T14:28:01;4.03;;;1.52;;
37645;SDS011;23489;49.600;6.138;2023-04-03T14:30:37;3.88;;;1.40;;
37645;SDS011;23489;49.600;6.138;2023-04-03T14:33:03;2.72;;;1.67;;
37645;SDS011;23489;49.600;6.138;2023-04-03T14:35:28;3.58;;;1.50;;
37645;SDS011;23489;49.600;6.138;2023-04-03T14:37:55;3.58;;;1.48;;
37645;SDS011;23489;49.600;6.138;2023-04-03T14:40:22;2.92;;;1.60;;
37645;SDS011;23489;49.600;6.138;2023-04-03T14:42:51;1.38;;;1.27;;
37645;SDS011;23489;49.600;6.138;2023-04-03T14:45:20;3.15;;;1.50;;
37645;SDS011;23489;49.600;6.138;2023-04-03T14:47:47;2.25;;;1.48;;
37645;SDS011;23489;49.600;6.138;2023-04-03T14:50:18;2.83;;;1.63;;
37645;SDS011;23489;49.600;6.138;2023-04-03T14:52:47;2.42;;;1.48;;
37645;SDS011;23489;49.600;6.138;2023-04-03T14:55:17;2.05;;;1.30;;
37645;SDS011;23489;49.600;6.138;2023-04-03T14:57:44;2.95;;;1.40;;
37645;SDS011;23489;49.600;6.138;2023-04-03T15:00:14;2.70;;;1.52;;
37645;SDS011;23489;49.600;6.138;2023-04-03T15:02:43;4.15;;;1.42;;
37645;SDS011;23489;49.600;6.138;2023-04-03T15:05:10;2.40;;;1.50;;
37645;SDS011;23489;49.600;6.138;2023-04-03T15:07:37;2.72;;;1.42;;
37645;SDS011;23489;49.600;6.138;2023-04-03T15:12:39;4.20;;;1.73;;
37645;SDS011;23489;49.600;6.138;2023-04-03T15:15:05;4.05;;;1.50;;
37645;SDS011;23489;49.600;6.138;2023-04-03T15:17:31;2.47;;;1.40;;
37645;SDS011;23489;49.600;6.138;2023-04-03T15:19:58;2.25;;;1.45;;
37645;SDS011;23489;49.600;6.138;2023-04-03T15:22:24;2.42;;;1.40;;
37645;SDS011;23489;49.600;6.138;2023-04-03T15:24:50;5.60;;;1.38;;
37645;SDS011;23489;49.600;6.138;2023-04-03T15:27:16;2.88;;;1.38;;
37645;SDS011;23489;49.600;6.138;2023-04-03T15:29:42;2.28;;;1.25;;
37645;SDS011;23489;49.600;6.138;2023-04-03T15:32:09;5.07;;;1.50;;
37645;SDS011;23489;49.600;6.138;2023-04-03T15:34:36;2.10;;;1.30;;
37645;SDS011;23489;49.600;6.138;2023-04-03T15:37:02;2.63;;;1.27;;
37645;SDS011;23489;49.600;6.138;2023-04-03T15:39:28;2.45;;;1.27;;
37645;SDS011;23489;49.600;6.138;2023-04-03T15:41:54;2.03;;;1.33;;
37645;SDS011;23489;49.600;6.138;2023-04-03T15:44:20;3.33;;;1.50;;
37645;SDS011;23489;49.600;6.138;2023-04-03T15:46:46;5.72;;;1.58;;
37645;SDS011;23489;49.600;6.138;2023-04-03T15:49:17;3.00;;;1.45;;
37645;SDS011;23489;49.600;6.138;2023-04-03T15:51:44;2.55;;;1.40;;
37645;SDS011;23489;49.600;6.138;2023-04-03T15:54:09;1.67;;;1.42;;
37645;SDS011;23489;49.600;6.138;2023-04-03T15:56:35;3.25;;;1.40;;
37645;SDS011;23489;49.600;6.138;2023-04-03T15:59:01;1.90;;;1.40;;
37645;SDS011;23489;49.600;6.138;2023-04-03T16:01:26;1.67;;;1.48;;
37645;SDS011;23489;49.600;6.138;2023-04-03T16:03:52;3.53;;;1.33;;
37645;SDS011;23489;49.600;6.138;2023-04-03T16:06:18;2.85;;;1.60;;
37645;SDS011;23489;49.600;6.138;2023-04-03T16:08:44;3.72;;;1.75;;
37645;SDS011;23489;49.600;6.138;2023-04-03T16:11:12;3.78;;;1.38;;
37645;SDS011;23489;49.600;6.138;2023-04-03T16:13:37;2.38;;;1.67;;
37645;SDS011;23489;49.600;6.138;2023-04-03T16:16:03;5.55;;;1.63;;
37645;SDS011;23489;49.600;6.138;2023-04-03T16:18:30;1.65;;;1.42;;
37645;SDS011;23489;49.600;6.138;2023-04-03T16:20:56;2.67;;;1.45;;
37645;SDS011;23489;49.600;6.138;2023-04-03T16:23:22;3.15;;;1.50;;
37645;SDS011;23489;49.600;6.138;2023-04-03T16:25:48;3.15;;;1.63;;
37645;SDS011;23489;49.600;6.138;2023-04-03T16:28:15;1.63;;;1.27;;
37645;SDS011;23489;49.600;6.138;2023-04-03T16:30:43;4.53;;;1.50;;
37645;SDS011;23489;49.600;6.138;2023-04-03T16:33:11;2.47;;;1.52;;
37645;SDS011;23489;49.600;6.138;2023-04-03T16:35:38;2.53;;;1.50;;
37645;SDS011;23489;49.600;6.138;2023-04-03T16:38:04;1.80;;;1.42;;
37645;SDS011;23489;49.600;6.138;2023-04-03T16:40:31;2.00;;;1.60;;
37645;SDS011;23489;49.600;6.138;2023-04-03T16:42:58;1.85;;;1.60;;
37645;SDS011;23489;49.600;6.138;2023-04-03T16:45:25;2.45;;;1.35;;
37645;SDS011;23489;49.600;6.138;2023-04-03T16:47:51;4.22;;;1.77;;
37645;SDS011;23489;49.600;6.138;2023-04-03T16:50:17;4.88;;;1.60;;
37645;SDS011;23489;49.600;6.138;2023-04-03T16:52:44;2.95;;;1.60;;
37645;SDS011;23489;49.600;6.138;2023-04-03T16:55:11;2.78;;;1.83;;
37645;SDS011;23489;49.600;6.138;2023-04-03T16:57:37;3.17;;;1.40;;
37645;SDS011;23489;49.600;6.138;2023-04-03T17:00:03;2.50;;;1.50;;
37645;SDS011;23489;49.600;6.138;2023-04-03T17:07:21;1.58;;;1.40;;
37645;SDS011;23489;49.600;6.138;2023-04-03T17:09:47;1.85;;;1.35;;
37645;SDS011;23489;49.600;6.138;2023-04-03T17:12:14;3.38;;;1.50;;
37645;SDS011;23489;49.600;6.138;2023-04-03T17:14:39;4.20;;;1.95;;